createdAt,value
2022-10-16T00:00:09.840Z,17.299999
2022-10-16T00:03:34.988Z,17.32
2022-10-16T00:07:00.161Z,17.360001
2022-10-16T00:10:25.344Z,17.370001
2022-10-16T00:13:50.492Z,17.389999
2022-10-16T00:17:15.644Z,17.4
2022-10-16T00:20:40.816Z,17.4
2022-10-16T00:24:05.974Z,17.389999
2022-10-16T00:27:31.171Z,17.42
2022-10-16T00:30:56.299Z,17.41
2022-10-16T00:34:21.472Z,17.41
2022-10-16T00:37:46.632Z,17.43
2022-10-16T00:41:11.804Z,17.450001
2022-10-16T00:44:36.994Z,17.469999
2022-10-16T00:48:02.207Z,17.51
2022-10-16T00:51:27.282Z,17.5
2022-10-16T00:54:52.434Z,17.5
2022-10-16T00:58:17.626Z,17.51
2022-10-16T01:01:42.810Z,17.52
2022-10-16T01:05:07.922Z,17.549999
2022-10-16T01:08:33.080Z,17.549999
2022-10-16T01:11:58.242Z,17.52
2022-10-16T01:15:23.391Z,17.51
2022-10-16T01:18:48.597Z,17.5
2022-10-16T01:22:13.731Z,17.49
2022-10-16T01:25:38.874Z,17.450001
2022-10-16T01:29:04.137Z,17.450001
2022-10-16T01:32:29.200Z,17.43
2022-10-16T01:35:54.363Z,17.48
2022-10-16T01:39:19.500Z,17.48
2022-10-16T01:42:44.780Z,17.440001
2022-10-16T01:46:09.856Z,17.41
2022-10-16T01:49:35.027Z,17.389999
2022-10-16T01:53:00.210Z,17.4
2022-10-16T01:56:25.354Z,17.41
2022-10-16T01:59:50.510Z,17.379999
2022-10-16T02:03:15.653Z,17.379999
2022-10-16T02:06:40.824Z,17.370001
2022-10-16T02:10:06.008Z,17.35
2022-10-16T02:13:31.118Z,17.33
2022-10-16T02:16:56.279Z,17.360001
2022-10-16T02:20:21.490Z,17.360001
2022-10-16T02:23:46.654Z,17.32
2022-10-16T02:27:11.849Z,17.309999
2022-10-16T02:30:36.984Z,17.280001
2022-10-16T02:34:02.151Z,17.26
2022-10-16T02:37:27.333Z,17.25
2022-10-16T02:40:52.492Z,17.26
2022-10-16T02:44:17.670Z,17.25
2022-10-16T02:47:42.812Z,17.24
2022-10-16T02:51:07.951Z,17.190001
2022-10-16T02:54:33.113Z,17.209999
2022-10-16T02:57:58.257Z,17.18
2022-10-16T03:01:23.479Z,17.190001
2022-10-16T03:04:48.617Z,17.209999
2022-10-16T03:08:13.796Z,17.26
2022-10-16T03:11:38.972Z,17.280001
2022-10-16T03:15:04.147Z,17.25
2022-10-16T03:18:29.330Z,17.25
2022-10-16T03:21:54.478Z,17.24
2022-10-16T03:25:19.661Z,17.209999
2022-10-16T03:28:44.864Z,17.200001
2022-10-16T03:32:10.026Z,17.18
2022-10-16T03:35:35.213Z,17.139999
2022-10-16T03:39:00.370Z,17.09
2022-10-16T03:42:25.523Z,17.040001
2022-10-16T03:45:50.706Z,17.02
2022-10-16T03:49:15.867Z,16.98
2022-10-16T03:52:41.039Z,16.959999
2022-10-16T03:56:06.173Z,16.950001
2022-10-16T03:59:31.341Z,16.93
2022-10-16T04:02:56.519Z,16.940001
2022-10-16T04:06:21.706Z,16.92
2022-10-16T04:09:46.901Z,16.92
2022-10-16T04:13:12.069Z,16.93
2022-10-16T04:16:37.227Z,16.92
2022-10-16T04:20:02.396Z,16.9
2022-10-16T04:23:27.581Z,16.91
2022-10-16T04:26:52.845Z,16.92
2022-10-16T04:30:18.006Z,16.93
2022-10-16T04:33:43.181Z,16.969999
